Farmington, NM (87401)

7:51 PM MST on February 08, 2016 (GMT -0700)
Mojave St & Butler Ave | | Change Station
CLOSE
Current Station
Personal Weather Station
Location: Farmington, NM
Elevation: 5413 ft
Nearby Weather Stations

Elev 5413 ft 36.74 °N, 108.20 °W | Updated 7 minutes ago

Partly Cloudy
Partly Cloudy
38.3 °F
Feels Like 38 °F
N
0.0
Wind Variable Wind from ESE

Today
High -- | Low -- °F
--% Chance of Precip.
Yesterday
High -- | Low -- °F
Precip. -- in
Pressure 30.45 in
Visibility 10.0 miles
Clouds Clear
Windchill 38 °F
Dew Point 30 °F
Humidity 71%
Rainfall 0.00 in
Snow Depth Not available.
7:08 AM 5:45 PM
New Moon, 0% visible
METAR KFMN 090153Z 28003KT 10SM CLR 07/M04 A3038 RMK AO2 SLP310 T00671044
Pressure 30.45 in
Visibility 10.0 miles
Clouds Clear
Windchill 38 °F
Dew Point 30 °F
Humidity 71%
Rainfall 0.00 in
Snow Depth Not available.
7:08 AM 5:45 PM
New Moon, 0% visible
METAR KFMN 090153Z 28003KT 10SM CLR 07/M04 A3038 RMK AO2 SLP310 T00671044

10-Day Weather Forecast

Almanac

Astronomy

Feb. 08, 2016 Rise Set
Actual Time
Civil Twilight
Nautical Twilight
Astronomical Twilight
Moon
Length of Visible Light
Length of Day
Tomorrow will be .
, % of the Moon is Illuminated

Today's Extremes

State Highs State Lows

Community

WunderPhotos

Upload Photos

1,891,527 photos uploaded!

WunderBlog® & News

Nearby

Air Quality

  Air Quality AQ Index Pollutant
Not available.

Snow Depth

Station Depth Elevation

Earthquake Activity

City Distance Mag. Time & Date
Minimum magnitude displayed is 2.5.

Coastal Water Temperatures

Place Temperature

Stations

Nearby Weather Stations

Station Location Temp. Windchill Dew Point Humidity Wind Precip. Elev Updated Type
                   

Watches & Warnings

There are currently no watches in effect.